createdAt,value
2018-04-01T08:10:14.194Z,88.98
2018-04-01T08:12:41.237Z,89.15
2018-04-01T08:15:09.395Z,89.70
2018-04-01T08:17:36.678Z,89.05
2018-04-01T08:20:03.733Z,88.50
2018-04-01T08:22:30.909Z,88.32
2018-04-01T08:24:57.991Z,87.65
2018-04-01T08:27:25.091Z,87.87
2018-04-01T08:29:52.200Z,88.18
2018-04-01T08:32:19.243Z,87.17
2018-04-01T08:34:46.320Z,87.60
2018-04-01T08:37:13.371Z,87.91
2018-04-01T08:39:40.480Z,87.08
2018-04-01T08:42:07.571Z,86.42
2018-04-01T08:44:34.691Z,85.17
2018-04-01T08:47:01.740Z,85.83
2018-04-01T08:49:29.935Z,85.25
2018-04-01T08:51:56.975Z,85.73
2018-04-01T08:54:24.008Z,86.17
2018-04-01T08:56:51.066Z,86.03
2018-04-01T08:59:18.291Z,85.39
2018-04-01T09:01:45.314Z,84.09
2018-04-01T09:04:12.383Z,85.21
2018-04-01T09:06:39.449Z,83.74
2018-04-01T09:09:06.525Z,84.76
2018-04-01T09:11:33.630Z,83.67
2018-04-01T09:14:00.691Z,84.70
2018-04-01T09:16:27.803Z,84.29
2018-04-01T09:18:54.871Z,84.72
2018-04-01T09:21:21.911Z,83.59
2018-04-01T09:23:48.948Z,83.68
2018-04-01T09:26:15.991Z,84.46
2018-04-01T09:28:45.148Z,83.78
2018-04-01T09:31:12.206Z,84.41
2018-04-01T09:33:39.299Z,83.54
2018-04-01T09:36:08.672Z,84.19
2018-04-01T09:38:35.785Z,83.78
2018-04-01T09:41:03.587Z,83.82
2018-04-01T09:43:30.659Z,83.72
2018-04-01T09:45:57.758Z,84.00
2018-04-01T09:48:25.052Z,83.68
2018-04-01T09:50:52.571Z,83.60
2018-04-01T09:53:19.751Z,83.19
2018-04-01T09:55:46.888Z,83.56
2018-04-01T09:58:14.081Z,83.41
2018-04-01T10:03:03.243Z,83.45
2018-04-01T10:05:31.230Z,83.38
2018-04-01T10:07:58.976Z,83.45
2018-04-01T10:10:26.610Z,82.62
2018-04-01T10:13:01.033Z,82.84
2018-04-01T10:15:30.080Z,83.12
2018-04-01T10:18:06.218Z,82.99
2018-04-01T10:20:33.814Z,82.67
2018-04-01T10:23:01.913Z,83.12
2018-04-01T10:25:29.559Z,82.71
2018-04-01T10:27:57.176Z,83.11
2018-04-01T10:30:25.623Z,83.09
2018-04-01T10:32:53.249Z,83.19
2018-04-01T10:35:20.898Z,82.86
2018-04-01T10:37:48.650Z,83.28
2018-04-01T10:40:16.448Z,82.45
2018-04-01T10:42:46.273Z,82.32
2018-04-01T10:45:13.986Z,83.16
2018-04-01T10:47:41.725Z,82.60
2018-04-01T10:50:09.418Z,82.18
2018-04-01T10:52:37.077Z,82.25
2018-04-01T10:55:04.292Z,82.79
2018-04-01T10:57:31.307Z,82.81
2018-04-01T10:59:58.455Z,82.61
2018-04-01T11:02:25.568Z,82.58
2018-04-01T11:04:52.738Z,82.74
2018-04-01T11:07:19.867Z,82.45
2018-04-01T11:09:47.016Z,82.78
2018-04-01T11:12:14.189Z,82.07
2018-04-01T11:14:41.238Z,82.24
2018-04-01T11:17:08.338Z,82.61
2018-04-01T11:19:35.439Z,82.40
2018-04-01T11:22:02.548Z,82.50
2018-04-01T11:24:29.728Z,81.93
2018-04-01T11:26:56.896Z,81.57
2018-04-01T11:29:23.998Z,81.28
2018-04-01T11:31:51.308Z,80.66
2018-04-01T11:34:18.368Z,80.95
2018-04-01T11:36:45.745Z,80.12
2018-04-01T11:39:12.787Z,80.88
2018-04-01T11:41:53.898Z,80.42
2018-04-01T11:44:21.928Z,80.63
2018-04-01T11:46:48.975Z,81.01
2018-04-01T11:49:17.224Z,81.33
2018-04-01T11:54:39.396Z,80.49
2018-04-01T11:57:06.488Z,80.77
2018-04-01T11:59:34.016Z,81.19
2018-04-01T12:02:01.191Z,81.04
2018-04-01T12:04:28.296Z,81.00
2018-04-01T12:06:55.366Z,81.57
2018-04-01T12:09:22.468Z,81.55
2018-04-01T12:11:49.541Z,82.38
2018-04-01T12:14:16.683Z,81.07
2018-04-01T12:16:43.728Z,81.51
2018-04-01T12:19:10.888Z,81.84
2018-04-01T12:21:37.938Z,81.11
2018-04-01T12:24:05.028Z,82.35
2018-04-01T12:26:32.240Z,80.76
2018-04-01T12:28:59.370Z,80.41
2018-04-01T12:31:26.539Z,80.16
2018-04-01T12:33:53.575Z,79.16
2018-04-01T12:36:20.611Z,78.78
2018-04-01T12:38:47.706Z,78.20
2018-04-01T12:41:14.776Z,79.14
2018-04-01T12:43:41.835Z,79.40
2018-04-01T12:46:14.841Z,80.04
2018-04-01T12:48:41.917Z,79.87
2018-04-01T12:51:09.030Z,79.08
2018-04-01T12:53:36.124Z,79.10
2018-04-01T12:56:03.165Z,78.05
2018-04-01T12:58:30.258Z,79.11
2018-04-01T13:00:57.300Z,79.03
2018-04-01T13:03:24.419Z,78.96
2018-04-01T13:05:51.456Z,79.51
2018-04-01T13:08:18.530Z,80.75
2018-04-01T13:10:45.586Z,80.84
2018-04-01T13:13:12.623Z,80.12
2018-04-01T13:15:39.705Z,80.92
2018-04-01T13:18:06.743Z,82.47
2018-04-01T13:20:33.814Z,82.41
2018-04-01T13:23:00.960Z,82.40
2018-04-01T13:25:28.117Z,82.36
2018-04-01T13:27:55.256Z,82.86
2018-04-01T13:30:22.320Z,83.22
2018-04-01T13:32:49.353Z,83.54
2018-04-01T13:35:16.455Z,82.99
2018-04-01T13:37:43.579Z,83.69
2018-04-01T13:40:10.620Z,83.65
2018-04-01T13:42:37.697Z,84.21
2018-04-01T13:45:04.724Z,84.68
2018-04-01T13:47:31.796Z,84.10
2018-04-01T13:49:58.877Z,83.09
2018-04-01T13:52:25.926Z,82.27
2018-04-01T13:54:53.939Z,83.28
2018-04-01T13:57:21.030Z,84.01
2018-04-01T13:59:48.079Z,85.07
2018-04-01T14:02:15.151Z,86.43
2018-04-01T14:04:42.202Z,87.27
2018-04-01T14:07:09.284Z,88.37
2018-04-01T14:09:36.404Z,89.04
2018-04-01T14:12:03.455Z,89.40
2018-04-01T14:14:30.532Z,89.68
2018-04-01T14:16:57.609Z,89.98
2018-04-01T14:19:24.687Z,90.21
2018-04-01T14:21:51.750Z,90.65
2018-04-01T14:24:18.790Z,91.18
2018-04-01T14:26:45.815Z,91.24
2018-04-01T14:29:12.851Z,90.94
2018-04-01T14:31:39.984Z,91.41
2018-04-01T14:34:07.039Z,91.17
2018-04-01T14:36:34.381Z,90.55
2018-04-01T14:39:01.433Z,90.87
2018-04-01T14:41:28.478Z,92.27
2018-04-01T14:43:55.530Z,91.54
2018-04-01T14:46:22.568Z,90.95
2018-04-01T14:48:49.614Z,91.77
2018-04-01T14:51:16.663Z,91.51
2018-04-01T14:53:43.862Z,91.14
2018-04-01T14:56:10.899Z,91.63
2018-04-01T14:58:38.069Z,92.03
2018-04-01T15:01:05.094Z,91.30
2018-04-01T15:03:32.128Z,91.77
2018-04-01T15:05:59.204Z,92.08
2018-04-01T15:08:26.243Z,92.46
2018-04-01T15:10:53.373Z,93.04
2018-04-01T15:13:21.236Z,92.98
2018-04-01T15:15:48.392Z,92.51
2018-04-01T15:18:15.467Z,93.20
2018-04-01T15:20:42.587Z,92.74
2018-04-01T15:23:09.619Z,93.04
2018-04-01T15:25:36.657Z,92.67
2018-04-01T15:28:04.192Z,92.71
2018-04-01T15:30:31.230Z,93.04
2018-04-01T15:32:58.276Z,93.39
2018-04-01T15:35:25.320Z,94.50
2018-04-01T15:37:52.359Z,94.14
2018-04-01T15:40:19.906Z,93.69
2018-04-01T15:42:47.000Z,93.44
2018-04-01T15:45:14.043Z,94.09
2018-04-01T15:47:41.115Z,93.61
2018-04-01T15:50:08.156Z,93.44
2018-04-01T15:52:35.191Z,94.05
2018-04-01T15:55:02.228Z,93.90
2018-04-01T15:57:29.272Z,94.27
2018-04-01T15:59:56.309Z,93.78
2018-04-01T16:02:23.374Z,93.79
2018-04-01T16:04:50.432Z,93.11
2018-04-01T16:07:17.653Z,93.44
2018-04-01T16:09:44.692Z,93.83
2018-04-01T16:12:11.867Z,93.88
2018-04-01T16:14:38.911Z,93.49
2018-04-01T16:17:06.163Z,93.88
2018-04-01T16:19:33.020Z,95.14
2018-04-01T16:22:00.127Z,94.61
2018-04-01T16:24:28.016Z,93.74
2018-04-01T16:26:55.056Z,94.30
2018-04-01T16:29:22.140Z,94.46
2018-04-01T16:31:49.180Z,95.65
2018-04-01T16:34:16.220Z,94.00
2018-04-01T16:36:43.251Z,94.81
2018-04-01T16:39:10.296Z,93.49
2018-04-01T16:41:37.334Z,94.02
2018-04-01T16:44:04.422Z,93.65
2018-04-01T16:46:31.820Z,94.42
2018-04-01T16:48:58.855Z,94.77
2018-04-01T16:51:25.937Z,95.24
2018-04-01T16:53:52.984Z,94.28
2018-04-01T16:56:20.834Z,94.42
2018-04-01T16:58:48.024Z,95.53
2018-04-01T17:01:15.187Z,94.34
2018-04-01T17:03:42.287Z,94.22
2018-04-01T17:06:09.856Z,94.94
2018-04-01T17:08:36.896Z,94.08
2018-04-01T17:11:03.979Z,94.58
2018-04-01T17:13:31.076Z,94.48
2018-04-01T17:15:58.167Z,94.63
2018-04-01T17:18:26.192Z,94.29
2018-04-01T17:20:53.232Z,94.16
2018-04-01T17:23:22.384Z,93.42
2018-04-01T17:25:49.479Z,94.82
2018-04-01T17:28:16.795Z,93.38
2018-04-01T17:30:44.127Z,94.02
2018-04-01T17:33:11.256Z,93.72
2018-04-01T17:35:38.452Z,93.93
2018-04-01T17:38:05.578Z,94.02
2018-04-01T17:40:32.668Z,93.58
2018-04-01T17:42:59.900Z,94.30
2018-04-01T17:45:27.078Z,93.95
2018-04-01T17:47:54.113Z,93.56
2018-04-01T17:50:21.159Z,93.88
2018-04-01T17:52:48.747Z,94.44
2018-04-01T17:55:16.757Z,94.86
2018-04-01T17:57:43.903Z,94.76
2018-04-01T18:00:10.952Z,94.73
2018-04-01T18:02:38.891Z,95.18
2018-04-01T18:05:05.940Z,95.24
2018-04-01T18:07:33.148Z,95.25
2018-04-01T18:10:00.284Z,95.32
2018-04-01T18:12:27.340Z,95.46
2018-04-01T18:14:54.939Z,95.60
2018-04-01T18:17:22.273Z,95.85
2018-04-01T18:19:49.510Z,96.33
2018-04-01T18:22:16.827Z,95.81
2018-04-01T18:24:45.037Z,95.58
2018-04-01T18:27:13.223Z,95.41
2018-04-01T18:29:41.402Z,95.05
2018-04-01T18:32:09.323Z,95.29
2018-04-01T18:34:37.693Z,95.20
2018-04-01T18:37:06.178Z,94.91
2018-04-01T18:39:33.728Z,95.44
2018-04-01T18:42:00.942Z,95.21
2018-04-01T18:44:28.503Z,95.15
2018-04-01T18:46:56.062Z,94.94
2018-04-01T18:49:23.929Z,95.27
2018-04-01T18:51:51.769Z,95.22
2018-04-01T18:54:18.949Z,95.40
2018-04-01T18:56:46.775Z,95.09
2018-04-01T18:59:14.273Z,95.17
2018-04-01T19:01:42.498Z,95.39
2018-04-01T19:04:10.631Z,94.41
2018-04-01T19:06:38.608Z,94.36
2018-04-01T19:09:06.415Z,94.45
2018-04-01T19:11:34.224Z,94.52
2018-04-01T19:14:02.148Z,94.90
2018-04-01T19:16:32.009Z,94.26
2018-04-01T19:19:01.060Z,94.61
2018-04-01T19:21:30.536Z,94.50
2018-04-01T19:23:59.255Z,94.46
2018-04-01T19:26:27.880Z,94.24
2018-04-01T19:28:56.719Z,94.70
2018-04-01T19:31:26.172Z,94.92
2018-04-01T19:33:55.712Z,94.99
2018-04-01T19:36:24.503Z,94.94
2018-04-01T19:38:53.150Z,94.77
2018-04-01T19:41:22.011Z,94.95
2018-04-01T19:43:50.605Z,97.88
2018-04-01T19:46:19.733Z,98.01
2018-04-01T19:48:48.479Z,96.73
2018-04-01T19:51:17.525Z,95.08
2018-04-01T19:53:47.456Z,95.30
2018-04-01T19:56:16.299Z,95.13
2018-04-01T19:58:46.031Z,95.30
2018-04-01T20:01:14.722Z,95.43
2018-04-01T20:03:43.551Z,95.62
2018-04-01T20:06:12.094Z,95.47
2018-04-01T20:08:40.782Z,95.73
2018-04-01T20:11:09.423Z,95.69
2018-04-01T20:13:38.378Z,95.42
2018-04-01T20:16:06.984Z,95.36
2018-04-01T20:18:35.638Z,95.37
2018-04-01T20:21:03.836Z,95.34
2018-04-01T20:23:32.387Z,95.52
2018-04-01T20:26:00.972Z,95.24
2018-04-01T20:28:29.475Z,94.89
2018-04-01T20:30:58.050Z,95.15
2018-04-01T20:33:26.628Z,94.89
2018-04-01T20:35:54.387Z,95.28
2018-04-01T20:38:22.891Z,95.30
2018-04-01T20:40:51.612Z,95.47
2018-04-01T20:43:20.552Z,95.51
2018-04-01T20:45:48.319Z,95.39
2018-04-01T20:48:16.804Z,95.28
2018-04-01T20:50:44.614Z,95.35
2018-04-01T20:53:12.276Z,95.23
2018-04-01T20:55:40.847Z,95.30
2018-04-01T20:58:09.348Z,95.39
2018-04-01T21:00:37.891Z,95.56
2018-04-01T21:03:05.540Z,95.40
2018-04-01T21:05:34.111Z,95.20
2018-04-01T21:08:02.796Z,95.07
2018-04-01T21:10:30.636Z,95.38
2018-04-01T21:12:58.401Z,95.28
2018-04-01T21:15:26.105Z,95.15
2018-04-01T21:17:53.723Z,95.29
2018-04-01T21:20:21.462Z,95.61
2018-04-01T21:22:49.112Z,95.36
2018-04-01T21:25:16.916Z,95.57
2018-04-01T21:27:44.559Z,95.49
2018-04-01T21:30:12.213Z,95.13
2018-04-01T21:32:39.970Z,94.88
2018-04-01T21:35:08.101Z,94.90
2018-04-01T21:37:35.891Z,94.85
2018-04-01T21:40:03.479Z,94.45
2018-04-01T21:42:31.070Z,94.51
2018-04-01T21:44:58.673Z,94.43
2018-04-01T21:47:26.271Z,94.42
2018-04-01T21:49:54.038Z,94.35
2018-04-01T21:52:21.627Z,94.08
2018-04-01T21:54:49.211Z,94.26
2018-04-01T21:57:16.812Z,94.33
2018-04-01T21:59:45.107Z,93.96
2018-04-01T22:02:12.732Z,93.95
2018-04-01T22:04:40.327Z,94.18
2018-04-01T22:07:07.918Z,93.22
2018-04-01T22:09:35.528Z,92.97
2018-04-01T22:12:03.149Z,92.77
2018-04-01T22:14:30.768Z,93.26
2018-04-01T22:16:58.348Z,93.11
2018-04-01T22:19:25.928Z,92.97
2018-04-01T22:21:53.515Z,92.94
2018-04-01T22:24:21.100Z,93.02
2018-04-01T22:26:48.702Z,92.80
2018-04-01T22:29:16.371Z,92.80
2018-04-01T22:31:43.963Z,93.02
2018-04-01T22:34:11.547Z,92.56
2018-04-01T22:36:39.126Z,92.20
2018-04-01T22:39:06.711Z,92.19
2018-04-01T22:41:34.298Z,92.18
2018-04-01T22:44:01.991Z,91.76
2018-04-01T22:46:29.638Z,91.62
2018-04-01T22:48:57.299Z,91.66
2018-04-01T22:51:24.885Z,91.36
2018-04-01T22:53:52.465Z,91.71
2018-04-01T22:56:20.056Z,91.44
2018-04-01T22:58:47.648Z,91.04
2018-04-01T23:01:15.353Z,90.46
2018-04-01T23:03:42.944Z,89.56
2018-04-01T23:06:10.567Z,90.33
2018-04-01T23:08:38.176Z,89.54
2018-04-01T23:11:05.752Z,89.12
2018-04-01T23:13:33.387Z,88.85
2018-04-01T23:16:00.971Z,89.26
2018-04-01T23:18:28.551Z,88.92
2018-04-01T23:20:56.130Z,88.76
2018-04-01T23:23:23.747Z,88.68
2018-04-01T23:25:52.032Z,88.18
2018-04-01T23:28:19.624Z,88.47
2018-04-01T23:30:47.220Z,87.65
2018-04-01T23:33:14.855Z,87.40
2018-04-01T23:35:42.441Z,87.66
2018-04-01T23:38:10.023Z,87.83
2018-04-01T23:40:38.215Z,87.58
2018-04-01T23:43:05.805Z,87.31
2018-04-01T23:45:33.399Z,87.96
2018-04-01T23:48:01.003Z,87.82
2018-04-01T23:50:28.609Z,86.87
2018-04-01T23:52:56.248Z,87.24
2018-04-01T23:55:23.912Z,87.05
2018-04-01T23:57:51.760Z,87.11
